createdAt,value
2023-05-25T00:01:49.492Z,1.00
2023-05-25T00:04:19.623Z,0.73
2023-05-25T00:06:48.167Z,0.82
2023-05-25T00:09:16.716Z,1.02
2023-05-25T00:11:45.097Z,0.55
2023-05-25T00:14:14.976Z,0.70
2023-05-25T00:16:44.710Z,0.60
2023-05-25T00:19:13.231Z,0.82
2023-05-25T00:21:41.580Z,0.93
2023-05-25T00:24:10.315Z,1.15
2023-05-25T00:26:38.894Z,0.70
2023-05-25T00:29:07.268Z,0.90
2023-05-25T00:31:37.137Z,0.73
2023-05-25T00:34:05.539Z,1.27
2023-05-25T00:36:33.850Z,0.80
2023-05-25T00:39:02.162Z,0.93
2023-05-25T00:41:30.887Z,0.68
2023-05-25T00:43:59.252Z,0.65
2023-05-25T00:46:28.381Z,0.60
2023-05-25T00:48:58.275Z,0.93
2023-05-25T00:51:27.361Z,0.73
2023-05-25T00:53:55.724Z,1.13
2023-05-25T00:56:26.247Z,0.60
2023-05-25T00:58:59.087Z,0.77
2023-05-25T01:01:29.015Z,1.10
2023-05-25T01:03:59.576Z,0.50
2023-05-25T01:06:28.912Z,1.05
2023-05-25T01:09:01.083Z,0.73
2023-05-25T01:11:30.393Z,0.98
2023-05-25T01:13:59.868Z,0.80
2023-05-25T01:16:28.387Z,0.70
2023-05-25T01:18:56.994Z,0.93
2023-05-25T01:21:29.235Z,0.68
2023-05-25T01:24:00.593Z,0.70
2023-05-25T01:26:31.420Z,1.00
2023-05-25T01:29:00.151Z,0.85
2023-05-25T01:31:28.763Z,1.00
2023-05-25T01:33:57.430Z,1.42
2023-05-25T01:36:27.168Z,0.70
2023-05-25T01:38:55.708Z,1.13
2023-05-25T01:41:24.094Z,1.08
2023-05-25T01:43:52.519Z,0.70
2023-05-25T01:46:25.557Z,1.27
2023-05-25T01:48:56.687Z,0.73
2023-05-25T01:51:33.363Z,1.05
2023-05-25T01:54:02.975Z,0.57
2023-05-25T01:56:32.868Z,1.15
2023-05-25T01:59:02.537Z,1.55
2023-05-25T02:01:31.339Z,0.98
2023-05-25T02:04:00.106Z,0.52
2023-05-25T02:06:29.846Z,0.57
2023-05-25T02:08:58.238Z,1.20
2023-05-25T02:11:26.581Z,0.90
2023-05-25T02:13:54.894Z,1.05
2023-05-25T02:16:23.308Z,0.88
2023-05-25T02:18:51.953Z,1.13
2023-05-25T02:21:20.463Z,1.08
2023-05-25T02:23:50.191Z,1.40
2023-05-25T02:26:18.528Z,1.73
2023-05-25T02:28:46.841Z,1.13
2023-05-25T02:31:15.241Z,1.60
2023-05-25T02:33:43.576Z,1.80
2023-05-25T02:36:12.049Z,2.03
2023-05-25T02:38:40.660Z,2.88
2023-05-25T02:41:10.446Z,1.30
2023-05-25T02:43:39.337Z,2.30
2023-05-25T02:46:07.684Z,1.63
2023-05-25T02:48:36.070Z,1.65
2023-05-25T02:51:04.808Z,1.92
2023-05-25T02:53:33.260Z,1.77
2023-05-25T02:56:02.275Z,2.03
2023-05-25T02:58:31.968Z,1.80
2023-05-25T03:01:00.850Z,1.98
2023-05-25T03:03:29.355Z,1.90
2023-05-25T03:05:58.199Z,1.85
2023-05-25T03:08:26.738Z,3.38
2023-05-25T03:10:55.078Z,2.40
2023-05-25T03:13:23.387Z,1.92
2023-05-25T03:15:53.072Z,2.78
2023-05-25T03:18:21.405Z,2.03
2023-05-25T03:20:49.795Z,1.77
2023-05-25T03:23:18.154Z,1.80
2023-05-25T03:25:46.756Z,1.48
2023-05-25T03:28:15.662Z,1.70
2023-05-25T03:30:43.968Z,1.67
2023-05-25T03:33:14.502Z,2.03
2023-05-25T03:35:43.116Z,1.58
2023-05-25T03:38:11.663Z,2.55
2023-05-25T03:40:39.997Z,2.47
2023-05-25T03:43:08.366Z,2.22
2023-05-25T03:45:36.904Z,1.50
2023-05-25T03:48:05.409Z,1.60
2023-05-25T03:50:35.281Z,1.70
2023-05-25T03:53:03.652Z,1.95
2023-05-25T03:55:32.463Z,2.92
2023-05-25T03:58:00.853Z,1.35
2023-05-25T04:00:29.209Z,1.95
2023-05-25T04:02:58.906Z,1.90
2023-05-25T04:05:27.677Z,1.77
2023-05-25T04:07:58.236Z,2.08
2023-05-25T04:10:26.597Z,1.30
2023-05-25T04:12:56.680Z,0.93
2023-05-25T04:15:25.128Z,1.23
2023-05-25T04:17:53.485Z,1.80
2023-05-25T04:20:21.897Z,1.65
2023-05-25T04:22:50.306Z,1.73
2023-05-25T04:25:20.802Z,1.60
2023-05-25T04:27:49.270Z,1.92
2023-05-25T04:30:17.771Z,1.85
2023-05-25T04:32:46.835Z,1.35
2023-05-25T04:35:15.611Z,1.88
2023-05-25T04:37:44.318Z,2.03
2023-05-25T04:40:14.246Z,1.92
2023-05-25T04:42:45.056Z,2.58
2023-05-25T04:45:17.654Z,1.98
2023-05-25T04:47:47.799Z,1.98
2023-05-25T04:50:16.189Z,1.50
2023-05-25T04:52:44.569Z,1.88
2023-05-25T04:55:12.919Z,1.70
2023-05-25T04:57:41.289Z,2.08
2023-05-25T05:00:12.593Z,2.88
2023-05-25T05:02:40.988Z,1.58
2023-05-25T05:05:09.705Z,2.25
2023-05-25T05:07:38.375Z,2.05
2023-05-25T05:10:07.091Z,2.28
2023-05-25T05:12:35.415Z,2.60
2023-05-25T05:15:03.905Z,2.15
2023-05-25T05:17:34.167Z,2.10
2023-05-25T05:20:02.784Z,2.15
2023-05-25T05:22:31.385Z,2.30
2023-05-25T05:24:59.751Z,2.25
2023-05-25T05:27:28.156Z,1.90
2023-05-25T05:29:56.530Z,1.90
2023-05-25T05:32:24.885Z,1.42
2023-05-25T05:34:54.688Z,1.90
2023-05-25T05:37:23.028Z,2.25
2023-05-25T05:39:52.683Z,1.88
2023-05-25T05:42:21.089Z,1.65
2023-05-25T05:44:49.515Z,2.13
2023-05-25T05:47:17.887Z,2.35
2023-05-25T05:49:47.410Z,1.40
2023-05-25T05:52:17.237Z,2.03
2023-05-25T05:54:45.609Z,1.73
2023-05-25T05:57:13.937Z,1.70
2023-05-25T05:59:42.363Z,1.35
2023-05-25T06:02:10.767Z,1.23
2023-05-25T06:04:39.549Z,1.80
2023-05-25T06:07:07.962Z,1.60
2023-05-25T06:09:37.693Z,1.40
2023-05-25T06:12:08.623Z,1.88
2023-05-25T06:14:36.965Z,1.20
2023-05-25T06:17:05.472Z,1.42
2023-05-25T06:19:33.937Z,1.55
2023-05-25T06:22:02.380Z,1.80
2023-05-25T06:24:31.461Z,2.42
2023-05-25T06:27:03.282Z,2.42
2023-05-25T06:29:31.848Z,1.40
2023-05-25T06:32:00.259Z,1.48
2023-05-25T06:34:28.710Z,2.38
2023-05-25T06:36:57.176Z,2.08
2023-05-25T06:39:25.658Z,1.55
2023-05-25T06:41:54.247Z,1.67
2023-05-25T06:44:24.019Z,1.80
2023-05-25T06:46:52.398Z,2.10
2023-05-25T06:49:20.749Z,1.80
2023-05-25T06:51:51.093Z,1.70
2023-05-25T06:54:19.710Z,2.08
2023-05-25T06:56:48.217Z,1.95
2023-05-25T06:59:18.344Z,2.03
2023-05-25T07:01:48.721Z,1.48
2023-05-25T07:04:17.204Z,1.95
2023-05-25T07:06:45.655Z,1.83
2023-05-25T07:09:14.082Z,2.13
2023-05-25T07:11:42.451Z,1.60
2023-05-25T07:14:10.833Z,1.83
2023-05-25T07:16:39.278Z,1.92
2023-05-25T07:19:09.052Z,1.88
2023-05-25T07:21:37.638Z,1.73
2023-05-25T07:24:06.176Z,1.80
2023-05-25T07:26:35.239Z,2.70
2023-05-25T07:29:03.678Z,1.98
2023-05-25T07:31:34.725Z,2.03
2023-05-25T07:34:03.127Z,2.15
2023-05-25T07:36:32.842Z,1.42
2023-05-25T07:39:01.622Z,2.42
2023-05-25T07:41:29.943Z,1.90
2023-05-25T07:43:58.415Z,1.65
2023-05-25T07:46:26.797Z,1.52
2023-05-25T07:48:56.267Z,1.88
2023-05-25T07:51:26.486Z,1.40
2023-05-25T07:53:57.150Z,2.33
2023-05-25T07:56:26.573Z,1.90
2023-05-25T07:58:54.930Z,1.63
2023-05-25T08:01:26.803Z,1.80
2023-05-25T08:03:55.715Z,1.73
2023-05-25T08:06:24.349Z,2.28
2023-05-25T08:08:52.776Z,1.48
2023-05-25T08:11:24.042Z,2.28
2023-05-25T08:13:52.456Z,2.55
2023-05-25T08:16:20.992Z,1.98
2023-05-25T08:18:49.813Z,2.33
2023-05-25T08:21:18.181Z,2.08
2023-05-25T08:23:46.536Z,1.65
2023-05-25T08:26:34.192Z,1.92
2023-05-25T08:29:05.059Z,1.75
2023-05-25T08:31:33.648Z,1.95
2023-05-25T08:34:02.259Z,1.65
2023-05-25T08:36:33.933Z,1.90
2023-05-25T08:39:02.346Z,1.63
2023-05-25T08:41:31.331Z,3.38
2023-05-25T08:44:06.137Z,2.38
2023-05-25T08:46:36.104Z,1.83
2023-05-25T08:49:07.126Z,1.77
2023-05-25T08:51:38.204Z,2.38
2023-05-25T08:54:11.319Z,2.05
2023-05-25T08:56:43.377Z,1.98
2023-05-25T08:59:16.489Z,1.52
2023-05-25T09:01:48.323Z,1.85
2023-05-25T09:04:19.677Z,2.10
2023-05-25T09:06:54.221Z,2.30
2023-05-25T09:09:26.283Z,1.38
2023-05-25T09:11:55.067Z,1.70
2023-05-25T09:14:23.836Z,2.17
2023-05-25T09:16:53.805Z,1.60
2023-05-25T09:19:22.419Z,1.65
2023-05-25T09:21:54.928Z,1.65
2023-05-25T09:24:31.447Z,2.20
2023-05-25T09:26:59.872Z,1.50
2023-05-25T09:29:28.291Z,1.52
2023-05-25T09:31:58.109Z,2.08
2023-05-25T09:34:33.989Z,2.08
2023-05-25T09:37:02.702Z,2.00
2023-05-25T09:39:31.914Z,1.67
2023-05-25T09:42:01.891Z,2.25
2023-05-25T09:44:30.574Z,1.60
2023-05-25T09:47:00.307Z,1.60
2023-05-25T09:49:28.893Z,1.88
2023-05-25T09:51:57.343Z,2.25
2023-05-25T09:54:25.768Z,1.60
2023-05-25T09:56:54.104Z,1.85
2023-05-25T09:59:23.930Z,1.50
2023-05-25T10:01:53.250Z,2.00
2023-05-25T10:04:23.431Z,1.85
2023-05-25T10:06:53.474Z,2.58
2023-05-25T10:09:22.100Z,2.22
2023-05-25T10:11:53.215Z,2.10
2023-05-25T10:14:22.668Z,1.95
2023-05-25T10:16:51.514Z,2.58
2023-05-25T10:19:23.200Z,2.45
2023-05-25T10:21:58.209Z,1.80
2023-05-25T10:26:56.366Z,1.70
2023-05-25T10:29:25.409Z,2.22
2023-05-25T10:31:54.179Z,2.97
2023-05-25T10:34:23.577Z,1.90
2023-05-25T10:36:52.977Z,2.67
2023-05-25T10:39:24.926Z,3.00
2023-05-25T10:41:54.254Z,2.58
2023-05-25T10:44:22.963Z,1.88
2023-05-25T10:46:51.356Z,1.80
2023-05-25T10:49:28.458Z,2.08
2023-05-25T10:52:00.015Z,1.95
2023-05-25T10:54:32.849Z,2.22
2023-05-25T10:57:11.115Z,1.90
2023-05-25T10:59:45.175Z,2.50
2023-05-25T11:02:14.002Z,2.83
2023-05-25T11:04:42.604Z,2.22
2023-05-25T11:07:14.381Z,3.08
2023-05-25T11:09:44.883Z,2.80
2023-05-25T11:12:21.752Z,2.25
2023-05-25T11:15:08.966Z,2.63
2023-05-25T11:17:45.902Z,2.08
2023-05-25T11:20:24.021Z,2.47
2023-05-25T11:22:53.414Z,2.38
2023-05-25T11:25:37.074Z,2.38
2023-05-25T11:28:13.034Z,2.15
2023-05-25T11:30:43.140Z,1.98
2023-05-25T11:33:11.623Z,1.73
2023-05-25T11:35:40.052Z,2.63
2023-05-25T11:38:09.287Z,2.50
2023-05-25T11:40:47.523Z,2.13
2023-05-25T11:43:18.244Z,2.15
2023-05-25T11:45:48.508Z,2.45
2023-05-25T11:48:17.222Z,1.70
2023-05-25T11:50:45.995Z,1.95
2023-05-25T11:53:15.080Z,2.35
2023-05-25T11:55:43.635Z,1.95
2023-05-25T11:58:12.006Z,2.63
2023-05-25T12:00:42.009Z,2.03
2023-05-25T12:03:12.112Z,2.33
2023-05-25T12:05:40.688Z,2.20
2023-05-25T12:08:09.146Z,1.75
2023-05-25T12:10:51.589Z,1.95
2023-05-25T12:13:19.958Z,2.47
2023-05-25T12:15:49.682Z,3.00
2023-05-25T12:18:18.153Z,1.77
2023-05-25T12:20:46.921Z,1.67
2023-05-25T12:23:15.833Z,1.85
2023-05-25T12:25:50.711Z,2.28
2023-05-25T12:28:19.732Z,2.05
2023-05-25T12:30:48.228Z,2.10
2023-05-25T12:33:18.082Z,2.55
2023-05-25T12:35:47.466Z,2.58
2023-05-25T12:38:17.496Z,2.30
2023-05-25T12:40:46.179Z,2.10
2023-05-25T12:43:15.319Z,2.50
2023-05-25T12:45:43.927Z,2.10
2023-05-25T12:48:12.757Z,2.83
2023-05-25T12:50:58.330Z,2.03
2023-05-25T12:53:27.355Z,2.05
2023-05-25T12:56:02.667Z,2.25
2023-05-25T12:58:31.212Z,2.38
2023-05-25T13:00:59.675Z,2.80
2023-05-25T13:03:28.245Z,2.03
2023-05-25T13:06:03.650Z,2.03
2023-05-25T13:08:33.241Z,2.28
2023-05-25T13:11:03.703Z,2.67
2023-05-25T13:13:32.160Z,2.20
2023-05-25T13:16:00.632Z,2.70
2023-05-25T13:18:29.016Z,2.47
2023-05-25T13:20:57.855Z,2.20
2023-05-25T13:23:27.950Z,2.30
2023-05-25T13:25:56.409Z,2.35
2023-05-25T13:28:25.033Z,2.40
2023-05-25T13:30:53.494Z,2.50
2023-05-25T13:33:21.883Z,2.03
2023-05-25T13:35:59.173Z,2.03
2023-05-25T13:38:29.668Z,2.17
2023-05-25T13:40:58.441Z,2.28
2023-05-25T13:43:27.076Z,2.75
2023-05-25T13:45:55.470Z,3.28
2023-05-25T13:48:24.157Z,2.58
2023-05-25T13:50:52.610Z,2.22
2023-05-25T13:53:21.054Z,2.47
2023-05-25T13:55:50.781Z,1.52
2023-05-25T13:58:20.506Z,1.85
2023-05-25T14:00:49.567Z,1.88
2023-05-25T14:03:18.096Z,2.20
2023-05-25T14:05:46.592Z,2.38
2023-05-25T14:08:15.089Z,2.05
2023-05-25T14:10:44.612Z,2.88
2023-05-25T14:13:14.649Z,2.90
2023-05-25T14:15:43.167Z,2.15
2023-05-25T14:18:11.911Z,2.10
2023-05-25T14:20:42.860Z,2.15
2023-05-25T14:23:14.247Z,1.95
2023-05-25T14:25:44.657Z,1.90
2023-05-25T14:28:14.607Z,2.10
2023-05-25T14:30:43.081Z,1.90
2023-05-25T14:33:14.176Z,2.42
2023-05-25T14:35:43.142Z,1.60
2023-05-25T14:38:11.918Z,1.83
2023-05-25T14:40:40.281Z,2.05
2023-05-25T14:43:08.771Z,1.90
2023-05-25T14:45:38.565Z,1.80
2023-05-25T14:48:16.668Z,2.22
2023-05-25T14:50:45.616Z,2.58
2023-05-25T14:53:14.000Z,1.58
2023-05-25T14:55:42.465Z,1.80
2023-05-25T14:58:11.157Z,2.33
2023-05-25T15:00:40.970Z,2.00
2023-05-25T15:03:09.512Z,2.25
2023-05-25T15:05:37.986Z,1.85
2023-05-25T15:08:06.532Z,1.73
2023-05-25T15:10:34.992Z,2.05
2023-05-25T15:13:03.497Z,1.88
2023-05-25T15:15:31.943Z,2.33
2023-05-25T15:18:01.811Z,1.95
2023-05-25T15:20:30.398Z,1.60
2023-05-25T15:22:58.913Z,1.67
2023-05-25T15:27:58.598Z,1.67
2023-05-25T15:30:27.833Z,1.73
2023-05-25T15:32:56.454Z,1.42
2023-05-25T15:35:31.233Z,1.48
2023-05-25T15:40:28.217Z,1.90
2023-05-25T15:42:56.619Z,1.60
2023-05-25T15:45:26.374Z,1.50
2023-05-25T15:47:55.031Z,1.75
2023-05-25T15:50:23.746Z,1.30
2023-05-25T15:52:53.506Z,1.60
2023-05-25T15:55:21.919Z,1.58
2023-05-25T15:57:50.287Z,1.77
2023-05-25T16:00:19.074Z,1.65
2023-05-25T16:02:47.537Z,1.45
2023-05-25T16:05:16.003Z,1.40
2023-05-25T16:07:44.367Z,1.10
2023-05-25T16:10:14.198Z,1.40
2023-05-25T16:12:42.588Z,1.35
2023-05-25T16:15:11.184Z,1.48
2023-05-25T16:17:39.560Z,2.08
2023-05-25T16:20:11.502Z,1.25
2023-05-25T16:22:39.921Z,1.40
2023-05-25T16:25:08.872Z,1.38
2023-05-25T16:27:38.733Z,1.35
2023-05-25T16:30:08.003Z,1.13
2023-05-25T16:32:36.525Z,1.45
2023-05-25T16:35:04.981Z,1.63
2023-05-25T16:37:33.399Z,1.23
2023-05-25T16:40:01.735Z,1.15
2023-05-25T16:42:30.190Z,1.38
2023-05-25T16:44:59.935Z,1.25
2023-05-25T16:47:28.319Z,1.55
2023-05-25T16:49:56.728Z,1.10
2023-05-25T16:52:25.095Z,1.52
2023-05-25T16:54:55.878Z,1.77
2023-05-25T16:57:24.265Z,1.95
2023-05-25T16:59:53.771Z,1.52
2023-05-25T17:02:23.824Z,1.83
2023-05-25T17:04:52.262Z,1.20
2023-05-25T17:07:20.664Z,1.40
2023-05-25T17:09:49.102Z,1.00
2023-05-25T17:12:18.684Z,1.00
2023-05-25T17:14:47.060Z,1.40
2023-05-25T17:17:16.525Z,1.50
2023-05-25T17:19:46.269Z,1.17
2023-05-25T17:22:14.598Z,1.27
2023-05-25T17:24:42.993Z,1.40
2023-05-25T17:27:11.403Z,1.20
2023-05-25T17:29:39.749Z,1.65
2023-05-25T17:32:08.299Z,1.48
2023-05-25T17:34:36.793Z,1.20
2023-05-25T17:37:06.650Z,1.20
2023-05-25T17:39:35.022Z,1.02
2023-05-25T17:42:03.707Z,1.60
2023-05-25T17:44:32.062Z,1.08
2023-05-25T17:47:00.424Z,1.40
2023-05-25T17:49:28.731Z,1.20
2023-05-25T17:51:57.127Z,1.27
2023-05-25T17:54:29.590Z,1.23
2023-05-25T17:56:58.062Z,1.40
2023-05-25T17:59:26.371Z,1.52
2023-05-25T18:01:54.825Z,1.10
2023-05-25T18:04:23.221Z,1.10
2023-05-25T18:06:52.611Z,0.90
2023-05-25T18:09:21.085Z,1.05
2023-05-25T18:11:52.974Z,1.80
2023-05-25T18:14:22.900Z,1.20
2023-05-25T18:16:51.617Z,1.15
2023-05-25T18:19:20.607Z,1.30
2023-05-25T18:21:48.965Z,1.38
2023-05-25T18:24:17.442Z,1.50
2023-05-25T18:26:46.431Z,1.85
2023-05-25T18:29:16.444Z,1.10
2023-05-25T18:31:47.347Z,1.13
2023-05-25T18:34:16.049Z,1.50
2023-05-25T18:36:44.526Z,1.05
2023-05-25T18:39:12.893Z,1.13
2023-05-25T18:41:42.561Z,1.17
2023-05-25T18:44:10.960Z,1.20
2023-05-25T18:46:44.369Z,1.08
2023-05-25T18:49:12.779Z,1.20
2023-05-25T18:51:41.249Z,1.45
2023-05-25T18:54:09.633Z,1.08
2023-05-25T18:56:38.453Z,1.08
2023-05-25T18:59:06.818Z,1.33
2023-05-25T19:01:35.187Z,1.02
2023-05-25T19:04:05.252Z,1.50
2023-05-25T19:06:33.906Z,0.95
2023-05-25T19:09:02.425Z,1.83
2023-05-25T19:11:31.640Z,1.15
2023-05-25T19:14:00.096Z,1.10
2023-05-25T19:16:28.581Z,1.27
2023-05-25T19:18:57.179Z,1.17
2023-05-25T19:21:27.333Z,1.13
2023-05-25T19:23:56.111Z,1.23
2023-05-25T19:26:24.570Z,1.35
2023-05-25T19:28:52.952Z,0.95
2023-05-25T19:31:23.424Z,1.10
2023-05-25T19:33:52.159Z,1.25
2023-05-25T19:36:20.989Z,1.45
2023-05-25T19:38:50.756Z,1.15
2023-05-25T19:41:19.226Z,1.02
2023-05-25T19:43:47.656Z,1.40
2023-05-25T19:46:16.091Z,0.82
2023-05-25T19:48:44.532Z,1.83
2023-05-25T19:51:12.924Z,1.48
2023-05-25T19:53:41.703Z,1.15
2023-05-25T19:56:11.560Z,1.70
2023-05-25T19:58:39.922Z,1.25
2023-05-25T20:01:08.390Z,1.33
2023-05-25T20:03:37.024Z,1.13
2023-05-25T20:06:06.083Z,1.30
2023-05-25T20:08:36.669Z,1.25
2023-05-25T20:11:05.168Z,1.92
2023-05-25T20:13:34.965Z,0.88
2023-05-25T20:16:03.422Z,1.30
2023-05-25T20:18:31.943Z,1.27
2023-05-25T20:21:00.306Z,1.77
2023-05-25T20:23:28.640Z,1.15
2023-05-25T20:25:57.086Z,1.80
2023-05-25T20:28:25.504Z,1.23
2023-05-25T20:30:55.237Z,1.35
2023-05-25T20:33:24.430Z,1.35
2023-05-25T20:35:52.934Z,1.73
2023-05-25T20:38:21.299Z,1.30
2023-05-25T20:40:49.772Z,1.38
2023-05-25T20:43:18.142Z,1.50
2023-05-25T20:45:46.754Z,1.63
2023-05-25T20:48:17.255Z,1.48
2023-05-25T20:50:45.664Z,1.45
2023-05-25T20:53:14.067Z,1.50
2023-05-25T20:55:42.543Z,1.25
2023-05-25T20:58:10.942Z,1.17
2023-05-25T21:00:39.264Z,1.70
2023-05-25T21:03:08.536Z,1.25
2023-05-25T21:05:38.524Z,1.20
2023-05-25T21:08:06.894Z,0.90
2023-05-25T21:10:35.253Z,1.40
2023-05-25T21:13:03.660Z,1.85
2023-05-25T21:15:31.998Z,1.10
2023-05-25T21:18:00.655Z,1.65
2023-05-25T21:20:29.103Z,1.50
2023-05-25T21:22:58.871Z,1.10
2023-05-25T21:25:27.269Z,1.10
2023-05-25T21:27:57.003Z,1.35
2023-05-25T21:30:26.610Z,1.60
2023-05-25T21:32:54.989Z,1.10
2023-05-25T21:35:23.375Z,1.75
2023-05-25T21:37:51.707Z,1.08
2023-05-25T21:40:21.432Z,1.95
2023-05-25T21:42:53.206Z,2.22
2023-05-25T21:45:21.798Z,1.85
2023-05-25T21:47:50.273Z,1.42
2023-05-25T21:50:18.768Z,0.90
2023-05-25T21:52:47.118Z,1.52
2023-05-25T21:55:15.512Z,1.30
2023-05-25T21:57:45.270Z,1.58
2023-05-25T22:00:14.304Z,1.92
2023-05-25T22:02:42.739Z,1.85
2023-05-25T22:05:11.262Z,1.27
2023-05-25T22:07:39.615Z,1.30
2023-05-25T22:10:08.647Z,1.67
2023-05-25T22:12:37.200Z,2.40
2023-05-25T22:15:07.575Z,1.38
2023-05-25T22:17:35.939Z,1.83
2023-05-25T22:20:07.984Z,1.63
2023-05-25T22:22:37.307Z,1.42
2023-05-25T22:25:05.890Z,1.52
2023-05-25T22:27:34.328Z,1.77
2023-05-25T22:30:02.707Z,1.48
2023-05-25T22:32:32.505Z,1.25
2023-05-25T22:35:01.099Z,1.17
2023-05-25T22:37:29.446Z,1.10
2023-05-25T22:39:57.906Z,1.48
2023-05-25T22:42:26.308Z,1.48
2023-05-25T22:44:54.652Z,1.65
2023-05-25T22:47:23.036Z,1.75
2023-05-25T22:49:52.759Z,1.15
2023-05-25T22:52:21.106Z,1.42
2023-05-25T22:54:49.551Z,1.15
2023-05-25T22:57:17.876Z,1.50
2023-05-25T22:59:46.205Z,1.38
2023-05-25T23:02:14.575Z,1.48
2023-05-25T23:04:42.972Z,1.70
2023-05-25T23:07:12.662Z,1.10
2023-05-25T23:09:41.006Z,1.10
2023-05-25T23:12:09.350Z,1.60
2023-05-25T23:14:37.674Z,1.35
2023-05-25T23:17:06.191Z,1.60
2023-05-25T23:19:35.699Z,1.23
2023-05-25T23:22:04.147Z,1.48
2023-05-25T23:24:33.882Z,1.20
2023-05-25T23:27:02.745Z,1.33
2023-05-25T23:29:31.274Z,1.60
2023-05-25T23:31:59.739Z,1.55
2023-05-25T23:34:28.126Z,1.60
2023-05-25T23:36:58.112Z,1.50
2023-05-25T23:39:26.571Z,1.80
2023-05-25T23:41:56.505Z,1.25
2023-05-25T23:44:24.862Z,1.83
2023-05-25T23:46:53.184Z,1.73
2023-05-25T23:49:21.553Z,0.90
2023-05-25T23:51:49.955Z,1.67
2023-05-25T23:54:18.420Z,1.23
2023-05-25T23:56:46.757Z,1.60
2023-05-25T23:59:16.487Z,1.02
